sensor_id;sensor_type;location;lat;lon;timestamp;noise_LAeq;noise_LA_min;noise_LA_max;noise_LA01;noise_LA95
37163;Laerm;23057;48.554;14.454;2023-03-23T00:02:30;49.88;48.81;51.51;;
37163;Laerm;23057;48.554;14.454;2023-03-23T00:05:06;49.88;48.73;51.41;;
37163;Laerm;23057;48.554;14.454;2023-03-23T00:07:37;49.89;48.81;50.98;;
37163;Laerm;23057;48.554;14.454;2023-03-23T00:10:08;49.89;48.67;52.24;;
37163;Laerm;23057;48.554;14.454;2023-03-23T00:12:39;49.89;48.84;51.02;;
37163;Laerm;23057;48.554;14.454;2023-03-23T00:15:12;49.89;48.83;51.53;;
37163;Laerm;23057;48.554;14.454;2023-03-23T00:17:43;49.88;48.67;51.42;;
37163;Laerm;23057;48.554;14.454;2023-03-23T00:20:14;49.88;48.74;51.73;;
37163;Laerm;23057;48.554;14.454;2023-03-23T00:22:45;49.88;48.83;50.99;;
37163;Laerm;23057;48.554;14.454;2023-03-23T00:25:15;49.89;48.51;51.72;;
37163;Laerm;23057;48.554;14.454;2023-03-23T00:27:47;49.88;48.85;51.94;;
37163;Laerm;23057;48.554;14.454;2023-03-23T00:30:17;49.88;48.73;52.06;;
37163;Laerm;23057;48.554;14.454;2023-03-23T00:32:48;49.89;48.92;52.08;;
37163;Laerm;23057;48.554;14.454;2023-03-23T00:35:21;49.88;48.76;51.35;;
37163;Laerm;23057;48.554;14.454;2023-03-23T00:37:51;49.88;48.63;51.35;;
37163;Laerm;23057;48.554;14.454;2023-03-23T00:40:22;49.88;48.87;52.01;;
37163;Laerm;23057;48.554;14.454;2023-03-23T00:42:53;49.89;48.71;51.37;;
37163;Laerm;23057;48.554;14.454;2023-03-23T00:45:24;49.88;48.77;51.03;;
37163;Laerm;23057;48.554;14.454;2023-03-23T00:47:55;49.88;48.77;52.09;;
37163;Laerm;23057;48.554;14.454;2023-03-23T00:50:27;49.89;48.76;52.17;;
37163;Laerm;23057;48.554;14.454;2023-03-23T00:52:58;49.89;48.80;50.92;;
37163;Laerm;23057;48.554;14.454;2023-03-23T00:55:29;49.88;48.84;51.39;;
37163;Laerm;23057;48.554;14.454;2023-03-23T00:58:00;49.89;48.90;51.81;;
37163;Laerm;23057;48.554;14.454;2023-03-23T01:00:31;49.89;48.90;51.85;;
37163;Laerm;23057;48.554;14.454;2023-03-23T01:03:03;49.88;48.73;51.72;;
37163;Laerm;23057;48.554;14.454;2023-03-23T01:05:36;49.87;48.71;51.30;;
37163;Laerm;23057;48.554;14.454;2023-03-23T01:08:07;49.88;48.80;51.55;;
37163;Laerm;23057;48.554;14.454;2023-03-23T01:10:39;49.89;48.77;51.13;;
37163;Laerm;23057;48.554;14.454;2023-03-23T01:13:12;49.89;48.87;51.10;;
37163;Laerm;23057;48.554;14.454;2023-03-23T01:15:43;49.89;48.80;51.68;;
37163;Laerm;23057;48.554;14.454;2023-03-23T01:18:13;49.90;48.85;52.06;;
37163;Laerm;23057;48.554;14.454;2023-03-23T01:20:44;49.92;48.83;51.50;;
37163;Laerm;23057;48.554;14.454;2023-03-23T01:23:15;49.91;48.74;51.43;;
37163;Laerm;23057;48.554;14.454;2023-03-23T01:25:46;49.91;48.99;51.41;;
37163;Laerm;23057;48.554;14.454;2023-03-23T01:28:17;49.90;48.85;51.54;;
37163;Laerm;23057;48.554;14.454;2023-03-23T01:30:47;49.91;48.88;51.67;;
37163;Laerm;23057;48.554;14.454;2023-03-23T01:33:18;49.90;48.84;51.22;;
37163;Laerm;23057;48.554;14.454;2023-03-23T01:35:49;49.90;48.87;51.39;;
37163;Laerm;23057;48.554;14.454;2023-03-23T01:38:20;49.89;48.95;51.88;;
37163;Laerm;23057;48.554;14.454;2023-03-23T01:40:51;49.89;48.92;51.31;;
37163;Laerm;23057;48.554;14.454;2023-03-23T01:43:22;49.90;48.78;51.00;;
37163;Laerm;23057;48.554;14.454;2023-03-23T01:45:53;49.91;48.74;51.09;;
37163;Laerm;23057;48.554;14.454;2023-03-23T01:48:30;49.88;48.80;51.95;;
37163;Laerm;23057;48.554;14.454;2023-03-23T01:51:09;49.89;48.85;51.56;;
37163;Laerm;23057;48.554;14.454;2023-03-23T01:53:48;49.90;48.51;51.22;;
37163;Laerm;23057;48.554;14.454;2023-03-23T01:56:23;49.90;48.87;51.07;;
37163;Laerm;23057;48.554;14.454;2023-03-23T01:58:57;49.90;48.80;52.33;;
37163;Laerm;23057;48.554;14.454;2023-03-23T02:01:28;49.90;48.84;51.22;;
37163;Laerm;23057;48.554;14.454;2023-03-23T02:03:59;49.90;48.96;50.97;;
37163;Laerm;23057;48.554;14.454;2023-03-23T02:06:30;49.89;48.91;51.06;;
37163;Laerm;23057;48.554;14.454;2023-03-23T02:09:01;49.91;48.80;51.67;;
37163;Laerm;23057;48.554;14.454;2023-03-23T02:11:32;49.91;48.61;51.21;;
37163;Laerm;23057;48.554;14.454;2023-03-23T02:14:03;49.91;49.00;51.50;;
37163;Laerm;23057;48.554;14.454;2023-03-23T02:16:38;49.90;48.54;51.07;;
37163;Laerm;23057;48.554;14.454;2023-03-23T02:28:47;49.90;48.88;52.06;;
37163;Laerm;23057;48.554;14.454;2023-03-23T02:34:45;49.91;48.77;51.15;;
37163;Laerm;23057;48.554;14.454;2023-03-23T02:37:43;49.91;48.90;51.13;;
37163;Laerm;23057;48.554;14.454;2023-03-23T02:40:37;49.90;48.87;52.00;;
37163;Laerm;23057;48.554;14.454;2023-03-23T02:43:15;49.90;48.74;51.08;;
37163;Laerm;23057;48.554;14.454;2023-03-23T02:45:49;49.90;48.74;52.23;;
37163;Laerm;23057;48.554;14.454;2023-03-23T02:48:24;49.91;48.69;51.91;;
37163;Laerm;23057;48.554;14.454;2023-03-23T02:51:00;49.91;48.80;51.29;;
37163;Laerm;23057;48.554;14.454;2023-03-23T02:53:36;49.91;48.77;51.14;;
37163;Laerm;23057;48.554;14.454;2023-03-23T02:56:10;49.90;48.66;52.13;;
37163;Laerm;23057;48.554;14.454;2023-03-23T02:58:42;49.89;48.63;52.11;;
37163;Laerm;23057;48.554;14.454;2023-03-23T03:04:15;49.90;48.77;50.93;;
37163;Laerm;23057;48.554;14.454;2023-03-23T03:13:13;49.90;48.66;51.75;;
37163;Laerm;23057;48.554;14.454;2023-03-23T03:16:10;49.90;48.73;51.28;;
37163;Laerm;23057;48.554;14.454;2023-03-23T03:21:19;49.91;48.55;51.50;;
37163;Laerm;23057;48.554;14.454;2023-03-23T03:23:58;49.91;48.94;51.42;;
37163;Laerm;23057;48.554;14.454;2023-03-23T03:26:32;49.90;48.87;51.40;;
37163;Laerm;23057;48.554;14.454;2023-03-23T03:29:05;49.91;48.58;52.06;;
37163;Laerm;23057;48.554;14.454;2023-03-23T03:31:40;49.91;48.88;51.37;;
37163;Laerm;23057;48.554;14.454;2023-03-23T03:34:16;49.90;48.83;51.17;;
37163;Laerm;23057;48.554;14.454;2023-03-23T03:36:48;49.91;48.85;51.22;;
37163;Laerm;23057;48.554;14.454;2023-03-23T03:39:21;49.93;48.94;51.73;;
37163;Laerm;23057;48.554;14.454;2023-03-23T03:41:52;49.91;48.83;51.33;;
37163;Laerm;23057;48.554;14.454;2023-03-23T03:44:22;49.90;48.69;51.47;;
37163;Laerm;23057;48.554;14.454;2023-03-23T03:46:53;49.91;48.84;51.30;;
37163;Laerm;23057;48.554;14.454;2023-03-23T03:49:24;49.90;48.80;51.78;;
37163;Laerm;23057;48.554;14.454;2023-03-23T03:51:56;49.91;48.85;53.02;;
37163;Laerm;23057;48.554;14.454;2023-03-23T03:54:26;49.91;48.84;50.99;;
37163;Laerm;23057;48.554;14.454;2023-03-23T03:56:57;49.90;48.74;51.51;;
37163;Laerm;23057;48.554;14.454;2023-03-23T03:59:28;49.92;48.88;51.33;;
37163;Laerm;23057;48.554;14.454;2023-03-23T04:02:01;49.92;48.84;51.38;;
37163;Laerm;23057;48.554;14.454;2023-03-23T04:04:32;49.91;48.80;51.43;;
37163;Laerm;23057;48.554;14.454;2023-03-23T04:07:03;49.92;48.71;51.62;;
37163;Laerm;23057;48.554;14.454;2023-03-23T04:09:35;49.92;48.90;51.98;;
37163;Laerm;23057;48.554;14.454;2023-03-23T04:12:07;49.93;48.91;50.98;;
37163;Laerm;23057;48.554;14.454;2023-03-23T04:14:38;49.91;48.91;51.59;;
37163;Laerm;23057;48.554;14.454;2023-03-23T04:17:09;49.91;48.74;51.60;;
37163;Laerm;23057;48.554;14.454;2023-03-23T04:19:40;49.90;48.84;52.09;;
37163;Laerm;23057;48.554;14.454;2023-03-23T04:22:11;49.90;48.94;51.09;;
37163;Laerm;23057;48.554;14.454;2023-03-23T04:24:42;49.90;48.90;51.18;;
37163;Laerm;23057;48.554;14.454;2023-03-23T04:27:13;49.90;48.98;51.63;;
37163;Laerm;23057;48.554;14.454;2023-03-23T04:29:43;49.89;48.84;52.48;;
37163;Laerm;23057;48.554;14.454;2023-03-23T04:32:20;49.90;48.78;51.10;;
37163;Laerm;23057;48.554;14.454;2023-03-23T04:34:51;49.89;48.71;51.03;;
37163;Laerm;23057;48.554;14.454;2023-03-23T04:37:22;49.90;48.71;51.89;;
37163;Laerm;23057;48.554;14.454;2023-03-23T04:39:56;49.90;48.87;52.09;;
37163;Laerm;23057;48.554;14.454;2023-03-23T04:42:40;49.89;48.96;51.38;;
37163;Laerm;23057;48.554;14.454;2023-03-23T04:45:15;49.91;48.81;52.34;;
37163;Laerm;23057;48.554;14.454;2023-03-23T04:47:46;49.90;48.85;52.17;;
37163;Laerm;23057;48.554;14.454;2023-03-23T04:50:28;49.91;48.87;51.52;;
37163;Laerm;23057;48.554;14.454;2023-03-23T04:53:03;49.91;48.81;51.13;;
37163;Laerm;23057;48.554;14.454;2023-03-23T04:55:36;49.91;48.74;52.06;;
37163;Laerm;23057;48.554;14.454;2023-03-23T04:58:07;49.91;48.81;52.46;;
37163;Laerm;23057;48.554;14.454;2023-03-23T05:00:38;49.91;48.78;55.10;;
37163;Laerm;23057;48.554;14.454;2023-03-23T05:03:10;49.90;48.81;51.82;;
37163;Laerm;23057;48.554;14.454;2023-03-23T05:05:43;49.90;48.58;51.26;;
37163;Laerm;23057;48.554;14.454;2023-03-23T05:08:19;49.90;48.95;51.75;;
37163;Laerm;23057;48.554;14.454;2023-03-23T05:10:56;49.89;48.76;51.48;;
37163;Laerm;23057;48.554;14.454;2023-03-23T05:13:28;49.89;48.70;51.46;;
37163;Laerm;23057;48.554;14.454;2023-03-23T05:16:04;49.90;48.81;51.01;;
37163;Laerm;23057;48.554;14.454;2023-03-23T05:18:35;49.89;48.78;51.85;;
37163;Laerm;23057;48.554;14.454;2023-03-23T05:21:06;49.88;48.71;51.14;;
37163;Laerm;23057;48.554;14.454;2023-03-23T05:23:37;49.90;48.77;52.29;;
37163;Laerm;23057;48.554;14.454;2023-03-23T05:26:07;49.89;48.88;52.00;;
37163;Laerm;23057;48.554;14.454;2023-03-23T05:28:38;49.90;48.81;52.03;;
37163;Laerm;23057;48.554;14.454;2023-03-23T05:31:12;49.89;48.87;51.36;;
37163;Laerm;23057;48.554;14.454;2023-03-23T05:33:43;49.90;48.80;51.72;;
37163;Laerm;23057;48.554;14.454;2023-03-23T05:36:14;49.90;48.77;51.78;;
37163;Laerm;23057;48.554;14.454;2023-03-23T05:38:45;49.89;48.87;52.02;;
37163;Laerm;23057;48.554;14.454;2023-03-23T05:41:18;49.89;48.80;51.21;;
37163;Laerm;23057;48.554;14.454;2023-03-23T05:43:48;49.89;48.74;51.90;;
37163;Laerm;23057;48.554;14.454;2023-03-23T05:46:19;49.89;48.87;52.48;;
37163;Laerm;23057;48.554;14.454;2023-03-23T05:48:50;49.89;48.84;52.23;;
37163;Laerm;23057;48.554;14.454;2023-03-23T05:51:21;49.89;48.88;51.12;;
37163;Laerm;23057;48.554;14.454;2023-03-23T05:53:51;49.89;48.58;51.59;;
37163;Laerm;23057;48.554;14.454;2023-03-23T05:56:22;49.88;48.77;51.81;;
37163;Laerm;23057;48.554;14.454;2023-03-23T05:58:57;49.89;48.77;52.47;;
37163;Laerm;23057;48.554;14.454;2023-03-23T06:01:28;49.88;48.80;51.50;;
37163;Laerm;23057;48.554;14.454;2023-03-23T06:03:59;49.89;48.74;52.49;;
37163;Laerm;23057;48.554;14.454;2023-03-23T06:06:30;49.84;48.84;51.62;;
37163;Laerm;23057;48.554;14.454;2023-03-23T06:09:03;49.84;48.73;52.25;;
37163;Laerm;23057;48.554;14.454;2023-03-23T06:11:33;49.85;48.62;53.83;;
37163;Laerm;23057;48.554;14.454;2023-03-23T06:14:04;49.84;48.85;51.59;;
37163;Laerm;23057;48.554;14.454;2023-03-23T06:16:35;49.82;48.72;51.44;;
37163;Laerm;23057;48.554;14.454;2023-03-23T06:19:06;49.83;48.45;52.02;;
37163;Laerm;23057;48.554;14.454;2023-03-23T06:21:37;49.82;48.71;51.20;;
37163;Laerm;23057;48.554;14.454;2023-03-23T06:24:08;49.83;48.66;51.40;;
37163;Laerm;23057;48.554;14.454;2023-03-23T06:26:39;49.82;48.54;51.43;;
37163;Laerm;23057;48.554;14.454;2023-03-23T06:29:11;49.81;48.83;51.55;;
37163;Laerm;23057;48.554;14.454;2023-03-23T06:31:46;49.81;48.67;51.62;;
37163;Laerm;23057;48.554;14.454;2023-03-23T06:34:18;49.82;48.66;52.06;;
37163;Laerm;23057;48.554;14.454;2023-03-23T06:36:49;49.82;48.74;52.10;;
37163;Laerm;23057;48.554;14.454;2023-03-23T06:39:20;49.81;48.77;51.80;;
37163;Laerm;23057;48.554;14.454;2023-03-23T06:41:51;49.80;48.66;51.70;;
37163;Laerm;23057;48.554;14.454;2023-03-23T06:44:22;49.80;48.76;51.62;;
37163;Laerm;23057;48.554;14.454;2023-03-23T06:46:52;49.79;48.61;51.89;;
37163;Laerm;23057;48.554;14.454;2023-03-23T06:49:23;49.80;48.69;51.81;;
37163;Laerm;23057;48.554;14.454;2023-03-23T06:51:54;49.79;48.80;51.45;;
37163;Laerm;23057;48.554;14.454;2023-03-23T06:54:27;49.77;48.73;51.24;;
37163;Laerm;23057;48.554;14.454;2023-03-23T06:56:58;49.78;48.67;51.97;;
37163;Laerm;23057;48.554;14.454;2023-03-23T06:59:29;49.78;48.73;51.87;;
37163;Laerm;23057;48.554;14.454;2023-03-23T07:02:00;49.78;48.61;51.72;;
37163;Laerm;23057;48.554;14.454;2023-03-23T07:04:32;49.75;48.71;51.59;;
37163;Laerm;23057;48.554;14.454;2023-03-23T07:07:03;49.75;48.58;51.61;;
37163;Laerm;23057;48.554;14.454;2023-03-23T07:09:33;49.74;48.73;53.08;;
37163;Laerm;23057;48.554;14.454;2023-03-23T07:12:05;49.74;48.49;51.44;;
37163;Laerm;23057;48.554;14.454;2023-03-23T07:14:36;49.71;48.49;51.38;;
37163;Laerm;23057;48.554;14.454;2023-03-23T07:17:07;49.70;48.68;51.50;;
37163;Laerm;23057;48.554;14.454;2023-03-23T07:19:38;49.64;48.51;51.37;;
37163;Laerm;23057;48.554;14.454;2023-03-23T07:22:09;49.62;48.67;51.33;;
37163;Laerm;23057;48.554;14.454;2023-03-23T07:24:39;49.63;48.45;51.75;;
37163;Laerm;23057;48.554;14.454;2023-03-23T07:27:10;49.63;48.48;51.37;;
37163;Laerm;23057;48.554;14.454;2023-03-23T07:29:41;49.60;48.49;50.88;;
37163;Laerm;23057;48.554;14.454;2023-03-23T07:32:12;49.62;48.45;50.84;;
37163;Laerm;23057;48.554;14.454;2023-03-23T07:34:43;49.61;48.55;51.37;;
37163;Laerm;23057;48.554;14.454;2023-03-23T07:37:14;49.64;48.51;51.10;;
37163;Laerm;23057;48.554;14.454;2023-03-23T07:39:45;49.65;48.54;51.17;;
37163;Laerm;23057;48.554;14.454;2023-03-23T07:42:15;49.67;48.48;51.17;;
37163;Laerm;23057;48.554;14.454;2023-03-23T07:44:46;49.67;48.54;50.77;;
37163;Laerm;23057;48.554;14.454;2023-03-23T07:47:17;49.68;48.63;51.34;;
37163;Laerm;23057;48.554;14.454;2023-03-23T07:49:48;49.68;48.63;51.08;;
37163;Laerm;23057;48.554;14.454;2023-03-23T07:52:19;49.69;48.54;51.25;;
37163;Laerm;23057;48.554;14.454;2023-03-23T07:54:50;49.69;48.69;51.49;;
37163;Laerm;23057;48.554;14.454;2023-03-23T07:57:21;49.68;48.48;51.67;;
37163;Laerm;23057;48.554;14.454;2023-03-23T07:59:52;49.61;48.49;51.53;;
37163;Laerm;23057;48.554;14.454;2023-03-23T08:02:24;49.57;48.31;51.76;;
37163;Laerm;23057;48.554;14.454;2023-03-23T08:04:55;49.54;48.26;51.64;;
37163;Laerm;23057;48.554;14.454;2023-03-23T08:07:27;49.53;48.36;51.03;;
37163;Laerm;23057;48.554;14.454;2023-03-23T08:09:57;49.57;48.36;51.14;;
37163;Laerm;23057;48.554;14.454;2023-03-23T08:12:28;49.58;48.54;51.01;;
37163;Laerm;23057;48.554;14.454;2023-03-23T08:14:59;49.59;48.32;51.35;;
37163;Laerm;23057;48.554;14.454;2023-03-23T08:17:30;49.61;48.42;51.51;;
37163;Laerm;23057;48.554;14.454;2023-03-23T08:20:02;49.60;48.46;51.46;;
37163;Laerm;23057;48.554;14.454;2023-03-23T08:22:41;49.60;48.52;51.59;;
37163;Laerm;23057;48.554;14.454;2023-03-23T08:25:13;49.59;48.36;51.30;;
37163;Laerm;23057;48.554;14.454;2023-03-23T08:27:45;49.59;48.63;52.41;;
37163;Laerm;23057;48.554;14.454;2023-03-23T08:30:20;49.58;48.34;50.95;;
37163;Laerm;23057;48.554;14.454;2023-03-23T08:32:52;49.56;48.48;50.73;;
37163;Laerm;23057;48.554;14.454;2023-03-23T08:35:24;49.56;48.52;50.96;;
37163;Laerm;23057;48.554;14.454;2023-03-23T08:37:54;49.56;48.46;51.09;;
37163;Laerm;23057;48.554;14.454;2023-03-23T08:40:25;49.56;48.48;50.90;;
37163;Laerm;23057;48.554;14.454;2023-03-23T08:42:58;49.57;48.40;50.95;;
37163;Laerm;23057;48.554;14.454;2023-03-23T08:45:30;49.58;48.34;50.61;;
37163;Laerm;23057;48.554;14.454;2023-03-23T08:48:00;49.59;48.48;51.38;;
37163;Laerm;23057;48.554;14.454;2023-03-23T08:50:31;49.58;48.40;52.30;;
37163;Laerm;23057;48.554;14.454;2023-03-23T08:53:02;49.59;48.55;51.64;;
37163;Laerm;23057;48.554;14.454;2023-03-23T08:55:33;49.61;48.57;51.31;;
37163;Laerm;23057;48.554;14.454;2023-03-23T08:58:04;49.59;48.36;51.16;;
37163;Laerm;23057;48.554;14.454;2023-03-23T09:00:35;49.58;48.52;50.85;;
37163;Laerm;23057;48.554;14.454;2023-03-23T09:03:05;49.58;48.34;51.40;;
37163;Laerm;23057;48.554;14.454;2023-03-23T09:05:37;49.59;48.35;51.06;;
37163;Laerm;23057;48.554;14.454;2023-03-23T09:08:09;49.59;48.43;51.50;;
37163;Laerm;23057;48.554;14.454;2023-03-23T09:10:40;49.59;48.32;51.61;;
37163;Laerm;23057;48.554;14.454;2023-03-23T09:13:11;49.58;48.51;51.11;;
37163;Laerm;23057;48.554;14.454;2023-03-23T09:15:41;49.59;48.62;51.05;;
37163;Laerm;23057;48.554;14.454;2023-03-23T09:18:12;49.59;48.46;51.23;;
37163;Laerm;23057;48.554;14.454;2023-03-23T09:20:45;49.58;48.43;51.40;;
37163;Laerm;23057;48.554;14.454;2023-03-23T09:23:16;49.59;48.42;51.53;;
37163;Laerm;23057;48.554;14.454;2023-03-23T09:25:47;49.60;48.64;51.49;;
37163;Laerm;23057;48.554;14.454;2023-03-23T09:28:19;49.59;48.34;51.40;;
37163;Laerm;23057;48.554;14.454;2023-03-23T09:30:50;49.59;48.54;51.27;;
37163;Laerm;23057;48.554;14.454;2023-03-23T09:33:22;49.57;48.46;51.12;;
37163;Laerm;23057;48.554;14.454;2023-03-23T09:35:52;49.59;48.46;51.09;;
37163;Laerm;23057;48.554;14.454;2023-03-23T09:38:23;49.59;48.63;51.04;;
37163;Laerm;23057;48.554;14.454;2023-03-23T09:41:33;49.60;48.49;51.27;;
37163;Laerm;23057;48.554;14.454;2023-03-23T09:50:14;49.60;48.55;51.40;;
37163;Laerm;23057;48.554;14.454;2023-03-23T09:53:22;49.60;48.48;51.19;;
37163;Laerm;23057;48.554;14.454;2023-03-23T09:55:55;49.61;48.48;51.44;;
37163;Laerm;23057;48.554;14.454;2023-03-23T09:58:34;49.59;48.48;51.80;;
37163;Laerm;23057;48.554;14.454;2023-03-23T10:01:19;49.58;48.46;50.67;;
37163;Laerm;23057;48.554;14.454;2023-03-23T10:04:03;49.56;48.13;50.69;;
37163;Laerm;23057;48.554;14.454;2023-03-23T10:06:35;49.57;48.52;51.11;;
37163;Laerm;23057;48.554;14.454;2023-03-23T10:09:16;49.58;48.42;50.84;;
37163;Laerm;23057;48.554;14.454;2023-03-23T10:12:13;49.59;48.34;51.08;;
37163;Laerm;23057;48.554;14.454;2023-03-23T10:17:59;49.59;48.37;51.40;;
37163;Laerm;23057;48.554;14.454;2023-03-23T10:20:50;49.58;48.31;50.86;;
37163;Laerm;23057;48.554;14.454;2023-03-23T10:24:01;49.56;48.49;50.60;;
37163;Laerm;23057;48.554;14.454;2023-03-23T10:26:53;49.58;48.57;50.92;;
37163;Laerm;23057;48.554;14.454;2023-03-23T10:29:36;49.57;48.37;51.08;;
37163;Laerm;23057;48.554;14.454;2023-03-23T10:32:14;49.59;48.60;51.27;;
37163;Laerm;23057;48.554;14.454;2023-03-23T10:34:55;49.58;48.21;50.88;;
37163;Laerm;23057;48.554;14.454;2023-03-23T10:37:36;49.58;48.43;50.64;;
37163;Laerm;23057;48.554;14.454;2023-03-23T10:40:17;49.58;48.43;51.02;;
37163;Laerm;23057;48.554;14.454;2023-03-23T10:42:50;49.59;48.32;50.59;;
37163;Laerm;23057;48.554;14.454;2023-03-23T10:45:29;49.59;48.55;50.77;;
37163;Laerm;23057;48.554;14.454;2023-03-23T10:48:39;49.60;48.42;51.33;;
37163;Laerm;23057;48.554;14.454;2023-03-23T10:51:13;49.60;48.55;50.87;;
37163;Laerm;23057;48.554;14.454;2023-03-23T10:53:56;49.58;48.36;50.85;;
37163;Laerm;23057;48.554;14.454;2023-03-23T10:56:36;49.57;48.49;50.70;;
37163;Laerm;23057;48.554;14.454;2023-03-23T10:59:28;49.57;48.45;55.24;;
37163;Laerm;23057;48.554;14.454;2023-03-23T11:02:02;49.56;48.54;50.91;;
37163;Laerm;23057;48.554;14.454;2023-03-23T11:04:46;49.56;48.52;51.22;;
37163;Laerm;23057;48.554;14.454;2023-03-23T11:07:25;49.57;48.54;50.62;;
37163;Laerm;23057;48.554;14.454;2023-03-23T11:10:08;49.57;48.37;51.12;;
37163;Laerm;23057;48.554;14.454;2023-03-23T11:12:45;49.57;48.43;50.76;;
37163;Laerm;23057;48.554;14.454;2023-03-23T11:15:32;49.56;48.42;50.98;;
37163;Laerm;23057;48.554;14.454;2023-03-23T11:18:13;49.55;48.37;51.33;;
37163;Laerm;23057;48.554;14.454;2023-03-23T11:20:57;49.55;48.43;50.92;;
37163;Laerm;23057;48.554;14.454;2023-03-23T11:23:33;49.54;48.54;51.20;;
37163;Laerm;23057;48.554;14.454;2023-03-23T11:26:20;49.53;48.55;50.75;;
37163;Laerm;23057;48.554;14.454;2023-03-23T11:29:09;49.52;48.34;51.03;;
37163;Laerm;23057;48.554;14.454;2023-03-23T11:32:10;49.53;48.42;50.63;;
37163;Laerm;23057;48.554;14.454;2023-03-23T11:34:59;49.53;48.43;51.00;;
37163;Laerm;23057;48.554;14.454;2023-03-23T11:37:43;49.51;48.40;50.53;;
37163;Laerm;23057;48.554;14.454;2023-03-23T11:40:23;49.54;48.54;51.04;;
37163;Laerm;23057;48.554;14.454;2023-03-23T11:43:14;49.55;48.34;51.06;;
37163;Laerm;23057;48.554;14.454;2023-03-23T11:46:14;49.56;48.40;51.09;;
37163;Laerm;23057;48.554;14.454;2023-03-23T11:49:07;49.55;48.37;51.41;;
37163;Laerm;23057;48.554;14.454;2023-03-23T11:51:49;49.54;48.32;51.10;;
37163;Laerm;23057;48.554;14.454;2023-03-23T11:54:35;49.53;48.13;50.54;;
37163;Laerm;23057;48.554;14.454;2023-03-23T11:57:10;49.53;48.42;50.71;;
37163;Laerm;23057;48.554;14.454;2023-03-23T11:59:45;49.52;48.28;51.28;;
37163;Laerm;23057;48.554;14.454;2023-03-23T12:02:39;49.52;48.42;50.56;;
37163;Laerm;23057;48.554;14.454;2023-03-23T12:05:37;49.52;48.42;50.95;;
37163;Laerm;23057;48.554;14.454;2023-03-23T12:11:05;49.56;48.31;51.07;;
37163;Laerm;23057;48.554;14.454;2023-03-23T12:13:59;49.56;48.60;51.28;;
37163;Laerm;23057;48.554;14.454;2023-03-23T12:16:53;49.55;48.32;50.91;;
37163;Laerm;23057;48.554;14.454;2023-03-23T12:19:37;49.55;48.51;51.07;;
37163;Laerm;23057;48.554;14.454;2023-03-23T12:22:39;49.55;48.42;50.63;;
37163;Laerm;23057;48.554;14.454;2023-03-23T12:26:00;49.56;48.49;50.63;;
37163;Laerm;23057;48.554;14.454;2023-03-23T12:34:47;49.54;48.23;51.25;;
37163;Laerm;23057;48.554;14.454;2023-03-23T12:40:58;49.54;48.57;51.27;;
37163;Laerm;23057;48.554;14.454;2023-03-23T12:46:56;49.55;48.37;51.02;;
37163;Laerm;23057;48.554;14.454;2023-03-23T12:49:48;49.53;48.45;51.34;;
37163;Laerm;23057;48.554;14.454;2023-03-23T12:53:10;49.52;48.37;51.30;;
37163;Laerm;23057;48.554;14.454;2023-03-23T12:56:02;49.52;48.37;51.09;;
37163;Laerm;23057;48.554;14.454;2023-03-23T12:58:43;49.53;48.37;51.73;;
37163;Laerm;23057;48.554;14.454;2023-03-23T13:01:30;49.52;48.48;50.71;;
37163;Laerm;23057;48.554;14.454;2023-03-23T13:04:14;49.52;48.32;50.65;;
37163;Laerm;23057;48.554;14.454;2023-03-23T13:06:48;49.53;48.40;51.01;;
37163;Laerm;23057;48.554;14.454;2023-03-23T13:12:05;49.53;48.21;51.16;;
37163;Laerm;23057;48.554;14.454;2023-03-23T13:15:02;49.54;48.42;50.80;;
37163;Laerm;23057;48.554;14.454;2023-03-23T13:18:11;49.54;48.48;50.86;;
37163;Laerm;23057;48.554;14.454;2023-03-23T13:23:46;49.54;48.46;50.59;;
37163;Laerm;23057;48.554;14.454;2023-03-23T13:26:22;49.54;48.51;51.36;;
37163;Laerm;23057;48.554;14.454;2023-03-23T13:31:36;49.54;48.46;50.60;;
37163;Laerm;23057;48.554;14.454;2023-03-23T13:34:24;49.54;48.21;50.92;;
37163;Laerm;23057;48.554;14.454;2023-03-23T13:37:03;49.54;48.40;50.57;;
37163;Laerm;23057;48.554;14.454;2023-03-23T13:39:47;49.54;48.49;51.27;;
37163;Laerm;23057;48.554;14.454;2023-03-23T13:42:30;49.56;48.31;51.06;;
37163;Laerm;23057;48.554;14.454;2023-03-23T13:48:21;49.55;48.28;51.33;;
37163;Laerm;23057;48.554;14.454;2023-03-23T13:51:00;49.58;48.51;52.14;;
37163;Laerm;23057;48.554;14.454;2023-03-23T13:53:48;49.57;48.46;51.49;;
37163;Laerm;23057;48.554;14.454;2023-03-23T13:56:36;49.57;48.39;51.70;;
37163;Laerm;23057;48.554;14.454;2023-03-23T13:59:30;49.56;48.52;51.35;;
37163;Laerm;23057;48.554;14.454;2023-03-23T14:08:03;49.55;48.46;52.03;;
37163;Laerm;23057;48.554;14.454;2023-03-23T14:14:03;49.55;48.40;51.95;;
37163;Laerm;23057;48.554;14.454;2023-03-23T14:16:38;49.56;48.45;50.83;;
37163;Laerm;23057;48.554;14.454;2023-03-23T14:19:28;49.57;48.32;51.79;;
37163;Laerm;23057;48.554;14.454;2023-03-23T14:22:01;49.57;48.54;51.32;;
37163;Laerm;23057;48.554;14.454;2023-03-23T14:24:40;49.57;48.29;51.22;;
37163;Laerm;23057;48.554;14.454;2023-03-23T14:27:21;49.58;48.55;52.23;;
37163;Laerm;23057;48.554;14.454;2023-03-23T14:30:18;49.57;48.31;51.75;;
37163;Laerm;23057;48.554;14.454;2023-03-23T14:32:51;49.58;48.37;51.56;;
37163;Laerm;23057;48.554;14.454;2023-03-23T14:35:29;49.58;48.60;50.98;;
37163;Laerm;23057;48.554;14.454;2023-03-23T14:38:01;49.58;48.49;51.77;;
37163;Laerm;23057;48.554;14.454;2023-03-23T14:40:34;49.59;48.54;50.71;;
37163;Laerm;23057;48.554;14.454;2023-03-23T14:43:04;49.59;48.48;52.57;;
37163;Laerm;23057;48.554;14.454;2023-03-23T14:45:36;49.59;48.37;50.64;;
37163;Laerm;23057;48.554;14.454;2023-03-23T14:48:12;49.61;48.42;52.14;;
37163;Laerm;23057;48.554;14.454;2023-03-23T14:50:55;49.59;48.51;51.34;;
37163;Laerm;23057;48.554;14.454;2023-03-23T14:53:44;49.59;48.34;51.29;;
37163;Laerm;23057;48.554;14.454;2023-03-23T14:56:18;49.60;48.42;52.68;;
37163;Laerm;23057;48.554;14.454;2023-03-23T14:58:51;49.58;48.16;51.46;;
37163;Laerm;23057;48.554;14.454;2023-03-23T15:01:27;49.62;48.55;53.05;;
37163;Laerm;23057;48.554;14.454;2023-03-23T15:04:18;49.60;48.58;51.13;;
37163;Laerm;23057;48.554;14.454;2023-03-23T15:06:59;49.60;48.54;52.10;;
37163;Laerm;23057;48.554;14.454;2023-03-23T15:09:31;49.60;48.32;52.62;;
37163;Laerm;23057;48.554;14.454;2023-03-23T15:12:04;49.61;48.51;52.24;;
37163;Laerm;23057;48.554;14.454;2023-03-23T15:14:46;49.61;48.45;51.23;;
37163;Laerm;23057;48.554;14.454;2023-03-23T15:17:22;49.61;48.52;52.00;;
37163;Laerm;23057;48.554;14.454;2023-03-23T15:19:55;49.61;48.46;51.92;;
37163;Laerm;23057;48.554;14.454;2023-03-23T15:22:31;49.60;48.55;50.55;;
37163;Laerm;23057;48.554;14.454;2023-03-23T15:25:11;49.62;48.46;51.62;;
37163;Laerm;23057;48.554;14.454;2023-03-23T15:27:50;49.62;48.54;51.78;;
37163;Laerm;23057;48.554;14.454;2023-03-23T15:33:08;49.63;48.42;51.70;;
37163;Laerm;23057;48.554;14.454;2023-03-23T15:35:47;49.64;48.60;51.84;;